Farmdale, Pennsylvania
Current Conditions -  °F | °C
As of 10:53 AM on Monday 26 Jan 2015 (Local Time) from KLNS Reporting Station
Light Snow Light Snow  
Wind Chill: 11°   Ceiling: 2800
Heat Index: 23°   Visibility: 3mi
Dew Point: 18°   Wind: 14mph
Humidity: 81%   Direction: 80°E
Pressure: 29.86"   Gusts: NA
Location:  40.1077°N, 76.5054°W
Report Text: KLNS 261553Z 08012KT 3SM -SN OVC028 M05/M08 A2986 RMK AO2 SLP117 P0000 T10501078
Loading
Personal Weather Stations






























Interactive Weather Map New forecast layout! Learn more

10-Day Weather Forecast

Advertisements
Track Severe Weather on mobile